sensor_id;sensor_type;location;lat;lon;timestamp;pressure;altitude;pressure_sealevel;temperature;humidity
38912;BME280;28444;48.056;14.408;2023-03-20T00:01:58;97695.66;;;8.70;87.78
38912;BME280;28444;48.056;14.408;2023-03-20T00:04:25;97694.75;;;8.67;87.37
38912;BME280;28444;48.056;14.408;2023-03-20T00:06:52;97703.28;;;8.71;87.68
38912;BME280;28444;48.056;14.408;2023-03-20T00:09:19;97700.75;;;8.73;87.41
38912;BME280;28444;48.056;14.408;2023-03-20T00:11:49;97699.09;;;8.70;87.98
38912;BME280;28444;48.056;14.408;2023-03-20T00:14:18;97700.91;;;8.67;87.68
38912;BME280;28444;48.056;14.408;2023-03-20T00:16:47;97696.22;;;8.68;88.09
38912;BME280;28444;48.056;14.408;2023-03-20T00:19:16;97702.56;;;8.71;86.95
38912;BME280;28444;48.056;14.408;2023-03-20T00:21:44;97702.03;;;8.72;86.93
38912;BME280;28444;48.056;14.408;2023-03-20T00:24:14;97694.72;;;8.75;87.46
38912;BME280;28444;48.056;14.408;2023-03-20T00:26:42;97698.03;;;8.73;87.18
38912;BME280;28444;48.056;14.408;2023-03-20T00:29:27;97706.19;;;8.73;87.77
38912;BME280;28444;48.056;14.408;2023-03-20T00:31:56;97699.81;;;8.71;87.91
38912;BME280;28444;48.056;14.408;2023-03-20T00:34:26;97698.56;;;8.64;88.51
38912;BME280;28444;48.056;14.408;2023-03-20T00:36:54;97698.03;;;8.65;88.25
38912;BME280;28444;48.056;14.408;2023-03-20T00:39:21;97694.00;;;8.66;87.89
38912;BME280;28444;48.056;14.408;2023-03-20T00:41:52;97690.56;;;8.66;88.24
38912;BME280;28444;48.056;14.408;2023-03-20T00:44:33;97679.31;;;8.62;88.80
38912;BME280;28444;48.056;14.408;2023-03-20T00:47:11;97684.19;;;8.63;88.32
38912;BME280;28444;48.056;14.408;2023-03-20T00:49:38;97684.91;;;8.64;88.43
38912;BME280;28444;48.056;14.408;2023-03-20T00:52:05;97681.47;;;8.63;88.97
38912;BME280;28444;48.056;14.408;2023-03-20T00:54:34;97680.59;;;8.61;89.01
38912;BME280;28444;48.056;14.408;2023-03-20T00:57:04;97683.66;;;8.65;88.80
38912;BME280;28444;48.056;14.408;2023-03-20T00:59:35;97684.91;;;8.64;88.39
38912;BME280;28444;48.056;14.408;2023-03-20T01:02:03;97673.47;;;8.73;88.51
38912;BME280;28444;48.056;14.408;2023-03-20T01:04:34;97678.56;;;8.69;88.24
38912;BME280;28444;48.056;14.408;2023-03-20T01:07:02;97680.38;;;8.74;87.94
38912;BME280;28444;48.056;14.408;2023-03-20T01:09:28;97689.47;;;8.69;87.72
38912;BME280;28444;48.056;14.408;2023-03-20T01:11:55;97685.66;;;8.72;87.69
38912;BME280;28444;48.056;14.408;2023-03-20T01:14:22;97686.91;;;8.71;87.85
38912;BME280;28444;48.056;14.408;2023-03-20T01:16:49;97684.94;;;8.72;87.89
38912;BME280;28444;48.056;14.408;2023-03-20T01:19:16;97683.81;;;8.75;87.89
38912;BME280;28444;48.056;14.408;2023-03-20T01:21:43;97682.94;;;8.80;87.52
38912;BME280;28444;48.056;14.408;2023-03-20T01:24:09;97676.91;;;8.81;87.68
38912;BME280;28444;48.056;14.408;2023-03-20T01:26:40;97682.94;;;8.80;87.73
38912;BME280;28444;48.056;14.408;2023-03-20T01:29:23;97679.47;;;8.79;87.33
38912;BME280;28444;48.056;14.408;2023-03-20T01:31:50;97679.47;;;8.79;87.60
38912;BME280;28444;48.056;14.408;2023-03-20T01:34:18;97678.94;;;8.73;87.96
38912;BME280;28444;48.056;14.408;2023-03-20T01:36:54;97679.50;;;8.72;87.68
38912;BME280;28444;48.056;14.408;2023-03-20T01:39:28;97678.94;;;8.73;87.20
38912;BME280;28444;48.056;14.408;2023-03-20T01:41:57;97687.66;;;8.72;87.42
38912;BME280;28444;48.056;14.408;2023-03-20T01:44:32;97689.66;;;8.71;87.24
38912;BME280;28444;48.056;14.408;2023-03-20T01:47:01;97687.09;;;8.81;87.70
38912;BME280;28444;48.056;14.408;2023-03-20T01:52:22;97696.19;;;8.83;87.43
38912;BME280;28444;48.056;14.408;2023-03-20T01:54:49;97689.28;;;8.82;86.92
38912;BME280;28444;48.056;14.408;2023-03-20T01:57:21;97694.00;;;8.89;87.05
38912;BME280;28444;48.056;14.408;2023-03-20T01:59:58;97694.34;;;8.86;87.04
38912;BME280;28444;48.056;14.408;2023-03-20T02:02:29;97696.19;;;8.83;86.81
38912;BME280;28444;48.056;14.408;2023-03-20T02:05:03;97690.38;;;8.79;87.54
38912;BME280;28444;48.056;14.408;2023-03-20T02:07:33;97691.84;;;8.80;87.73
38912;BME280;28444;48.056;14.408;2023-03-20T02:10:03;97697.28;;;8.80;87.67
38912;BME280;28444;48.056;14.408;2023-03-20T02:12:32;97683.66;;;8.80;87.51
38912;BME280;28444;48.056;14.408;2023-03-20T02:15:00;97684.38;;;8.81;88.13
38912;BME280;28444;48.056;14.408;2023-03-20T02:17:27;97692.75;;;8.83;87.42
38912;BME280;28444;48.056;14.408;2023-03-20T02:20:21;97688.53;;;8.82;87.40
38912;BME280;28444;48.056;14.408;2023-03-20T02:24:30;97688.19;;;8.85;86.93
38912;BME280;28444;48.056;14.408;2023-03-20T02:26:20;97696.91;;;8.84;87.54
38912;BME280;28444;48.056;14.408;2023-03-20T02:32:19;97698.72;;;8.89;87.32
38912;BME280;28444;48.056;14.408;2023-03-20T02:40:20;97710.00;;;8.85;87.61
38912;BME280;28444;48.056;14.408;2023-03-20T02:41:39;97707.84;;;8.76;87.96
38912;BME280;28444;48.056;14.408;2023-03-20T02:44:23;97707.84;;;8.68;88.32
38912;BME280;28444;48.056;14.408;2023-03-20T02:47:05;97708.38;;;8.67;88.76
38912;BME280;28444;48.056;14.408;2023-03-20T02:50:01;97709.47;;;8.87;88.00
38912;BME280;28444;48.056;14.408;2023-03-20T02:53:10;97710.56;;;8.76;88.42
38912;BME280;28444;48.056;14.408;2023-03-20T02:56:33;97707.13;;;8.68;89.56
38912;BME280;28444;48.056;14.408;2023-03-20T02:59:00;97714.38;;;8.65;89.77
38912;BME280;28444;48.056;14.408;2023-03-20T03:01:35;97708.00;;;8.71;89.11
38912;BME280;28444;48.056;14.408;2023-03-20T03:04:10;97714.00;;;8.77;88.35
38912;BME280;28444;48.056;14.408;2023-03-20T03:06:42;97722.34;;;8.71;88.72
38912;BME280;28444;48.056;14.408;2023-03-20T03:09:32;97718.38;;;8.72;89.27
38912;BME280;28444;48.056;14.408;2023-03-20T03:12:05;97721.84;;;8.57;90.66
38912;BME280;28444;48.056;14.408;2023-03-20T03:14:40;97723.09;;;8.56;91.05
38912;BME280;28444;48.056;14.408;2023-03-20T03:17:10;97728.19;;;8.52;90.91
38912;BME280;28444;48.056;14.408;2023-03-20T03:19:42;97728.72;;;8.58;90.94
38912;BME280;28444;48.056;14.408;2023-03-20T03:22:11;97727.44;;;8.59;91.00
38912;BME280;28444;48.056;14.408;2023-03-20T03:24:43;97726.94;;;8.61;91.08
38912;BME280;28444;48.056;14.408;2023-03-20T03:27:38;97720.56;;;8.66;90.56
38912;BME280;28444;48.056;14.408;2023-03-20T03:30:16;97720.38;;;8.79;89.82
38912;BME280;28444;48.056;14.408;2023-03-20T03:32:46;97728.91;;;8.83;89.71
38912;BME280;28444;48.056;14.408;2023-03-20T03:35:19;97734.00;;;8.95;89.31
38912;BME280;28444;48.056;14.408;2023-03-20T03:38:15;97733.06;;;9.00;89.24
38912;BME280;28444;48.056;14.408;2023-03-20T03:41:39;97725.63;;;9.00;88.92
38912;BME280;28444;48.056;14.408;2023-03-20T03:44:20;97726.91;;;8.91;89.28
38912;BME280;28444;48.056;14.408;2023-03-20T03:46:55;97723.25;;;8.97;89.46
38912;BME280;28444;48.056;14.408;2023-03-20T03:49:26;97728.34;;;8.92;89.70
38912;BME280;28444;48.056;14.408;2023-03-20T03:51:57;97736.91;;;8.89;89.90
38912;BME280;28444;48.056;14.408;2023-03-20T03:54:33;97732.72;;;8.96;89.59
38912;BME280;28444;48.056;14.408;2023-03-20T03:57:02;97733.66;;;8.90;89.62
38912;BME280;28444;48.056;14.408;2023-03-20T03:59:40;97739.81;;;8.99;89.99
38912;BME280;28444;48.056;14.408;2023-03-20T04:02:08;97737.44;;;8.95;89.32
38912;BME280;28444;48.056;14.408;2023-03-20T04:04:39;97731.09;;;8.92;90.05
38912;BME280;28444;48.056;14.408;2023-03-20T04:07:08;97732.72;;;8.96;89.95
38912;BME280;28444;48.056;14.408;2023-03-20T04:09:34;97736.91;;;8.97;89.96
38912;BME280;28444;48.056;14.408;2023-03-20T04:12:01;97736.00;;;9.02;89.78
38912;BME280;28444;48.056;14.408;2023-03-20T04:14:28;97724.91;;;8.92;90.71
38912;BME280;28444;48.056;14.408;2023-03-20T04:16:54;97729.44;;;8.89;90.94
38912;BME280;28444;48.056;14.408;2023-03-20T04:19:21;97736.53;;;8.77;91.06
38912;BME280;28444;48.056;14.408;2023-03-20T04:21:48;97734.91;;;8.89;91.35
38912;BME280;28444;48.056;14.408;2023-03-20T04:24:14;97735.81;;;8.84;91.41
38912;BME280;28444;48.056;14.408;2023-03-20T04:26:41;97748.38;;;8.80;91.79
38912;BME280;28444;48.056;14.408;2023-03-20T04:29:08;97744.91;;;8.87;91.34
38912;BME280;28444;48.056;14.408;2023-03-20T04:31:35;97745.28;;;8.91;91.62
38912;BME280;28444;48.056;14.408;2023-03-20T04:34:02;97751.25;;;8.89;91.33
38912;BME280;28444;48.056;14.408;2023-03-20T04:36:29;97754.00;;;8.89;91.40
38912;BME280;28444;48.056;14.408;2023-03-20T04:38:55;97759.63;;;8.84;91.46
38912;BME280;28444;48.056;14.408;2023-03-20T04:41:23;97757.47;;;8.90;91.03
38912;BME280;28444;48.056;14.408;2023-03-20T04:43:49;97759.63;;;8.91;90.62
38912;BME280;28444;48.056;14.408;2023-03-20T04:46:16;97761.66;;;8.83;92.01
38912;BME280;28444;48.056;14.408;2023-03-20T04:48:43;97764.72;;;8.80;91.80
38912;BME280;28444;48.056;14.408;2023-03-20T04:51:09;97766.38;;;8.83;91.87
38912;BME280;28444;48.056;14.408;2023-03-20T04:53:36;97766.91;;;8.81;91.25
38912;BME280;28444;48.056;14.408;2023-03-20T04:56:04;97776.38;;;8.88;91.24
38912;BME280;28444;48.056;14.408;2023-03-20T04:58:31;97773.06;;;8.89;91.17
38912;BME280;28444;48.056;14.408;2023-03-20T05:00:57;97783.47;;;8.83;91.76
38912;BME280;28444;48.056;14.408;2023-03-20T05:03:24;97780.72;;;8.83;92.04
38912;BME280;28444;48.056;14.408;2023-03-20T05:05:52;97786.91;;;8.91;91.71
38912;BME280;28444;48.056;14.408;2023-03-20T05:08:19;97789.81;;;8.78;91.87
38912;BME280;28444;48.056;14.408;2023-03-20T05:10:46;97790.91;;;8.83;91.80
38912;BME280;28444;48.056;14.408;2023-03-20T05:13:13;97800.53;;;8.84;91.56
38912;BME280;28444;48.056;14.408;2023-03-20T05:15:39;97799.09;;;8.83;92.21
38912;BME280;28444;48.056;14.408;2023-03-20T05:18:06;97801.63;;;8.81;92.06
38912;BME280;28444;48.056;14.408;2023-03-20T05:20:33;97802.19;;;8.87;92.35
38912;BME280;28444;48.056;14.408;2023-03-20T05:23:00;97809.28;;;8.82;92.31
38912;BME280;28444;48.056;14.408;2023-03-20T05:25:26;97814.19;;;8.91;92.40
38912;BME280;28444;48.056;14.408;2023-03-20T05:27:53;97810.53;;;8.97;91.69
38912;BME280;28444;48.056;14.408;2023-03-20T05:30:20;97812.75;;;8.98;91.84
38912;BME280;28444;48.056;14.408;2023-03-20T05:32:51;97814.53;;;8.96;91.58
38912;BME280;28444;48.056;14.408;2023-03-20T05:35:18;97813.09;;;8.95;92.15
38912;BME280;28444;48.056;14.408;2023-03-20T05:37:45;97811.09;;;8.95;92.03
38912;BME280;28444;48.056;14.408;2023-03-20T05:40:14;97817.63;;;8.92;91.94
38912;BME280;28444;48.056;14.408;2023-03-20T05:42:41;97828.53;;;9.00;91.96
38912;BME280;28444;48.056;14.408;2023-03-20T05:45:08;97824.53;;;8.93;92.79
38912;BME280;28444;48.056;14.408;2023-03-20T05:47:35;97824.19;;;9.04;92.19
38912;BME280;28444;48.056;14.408;2023-03-20T05:50:03;97829.28;;;9.00;92.07
38912;BME280;28444;48.056;14.408;2023-03-20T05:52:29;97828.00;;;9.16;91.40
38912;BME280;28444;48.056;14.408;2023-03-20T05:54:56;97834.03;;;9.23;91.40
38912;BME280;28444;48.056;14.408;2023-03-20T05:57:23;97835.28;;;9.29;91.33
38912;BME280;28444;48.056;14.408;2023-03-20T05:59:49;97837.09;;;9.34;91.08
38912;BME280;28444;48.056;14.408;2023-03-20T06:02:16;97844.38;;;9.32;91.33
38912;BME280;28444;48.056;14.408;2023-03-20T06:04:43;97848.75;;;9.35;91.17
38912;BME280;28444;48.056;14.408;2023-03-20T06:07:11;97850.56;;;9.32;91.35
38912;BME280;28444;48.056;14.408;2023-03-20T06:09:38;97850.19;;;9.36;91.09
38912;BME280;28444;48.056;14.408;2023-03-20T06:12:05;97852.94;;;9.36;91.80
38912;BME280;28444;48.056;14.408;2023-03-20T06:14:32;97851.66;;;9.37;91.27
38912;BME280;28444;48.056;14.408;2023-03-20T06:16:58;97853.66;;;9.44;91.30
38912;BME280;28444;48.056;14.408;2023-03-20T06:19:26;97857.13;;;9.45;91.05
38912;BME280;28444;48.056;14.408;2023-03-20T06:21:52;97858.00;;;9.47;91.11
38912;BME280;28444;48.056;14.408;2023-03-20T06:24:19;97862.38;;;9.58;90.47
38912;BME280;28444;48.056;14.408;2023-03-20T06:26:46;97868.91;;;9.55;90.49
38912;BME280;28444;48.056;14.408;2023-03-20T06:29:12;97865.47;;;9.54;90.54
38912;BME280;28444;48.056;14.408;2023-03-20T06:31:41;97871.84;;;9.57;90.33
38912;BME280;28444;48.056;14.408;2023-03-20T06:34:07;97863.09;;;9.58;90.54
38912;BME280;28444;48.056;14.408;2023-03-20T06:36:34;97862.00;;;9.54;90.90
38912;BME280;28444;48.056;14.408;2023-03-20T06:39:01;97871.66;;;9.55;90.77
38912;BME280;28444;48.056;14.408;2023-03-20T06:41:28;97875.50;;;9.59;90.25
38912;BME280;28444;48.056;14.408;2023-03-20T06:44:01;97877.28;;;9.64;90.76
38912;BME280;28444;48.056;14.408;2023-03-20T06:46:27;97880.03;;;9.64;90.57
38912;BME280;28444;48.056;14.408;2023-03-20T06:48:54;97881.84;;;9.62;90.96
38912;BME280;28444;48.056;14.408;2023-03-20T06:51:21;97881.47;;;9.73;91.20
38912;BME280;28444;48.056;14.408;2023-03-20T06:53:48;97885.09;;;9.83;90.24
38912;BME280;28444;48.056;14.408;2023-03-20T06:56:14;97882.91;;;9.89;89.46
38912;BME280;28444;48.056;14.408;2023-03-20T06:58:42;97878.13;;;9.98;89.77
38912;BME280;28444;48.056;14.408;2023-03-20T07:01:13;97884.13;;;10.04;89.03
38912;BME280;28444;48.056;14.408;2023-03-20T07:03:41;97880.13;;;10.05;89.16
38912;BME280;28444;48.056;14.408;2023-03-20T07:06:08;97883.41;;;10.11;88.91
38912;BME280;28444;48.056;14.408;2023-03-20T07:08:35;97891.97;;;10.07;89.01
38912;BME280;28444;48.056;14.408;2023-03-20T07:11:02;97892.00;;;10.00;89.49
38912;BME280;28444;48.056;14.408;2023-03-20T07:13:30;97895.78;;;10.04;89.43
38912;BME280;28444;48.056;14.408;2023-03-20T07:15:59;97895.41;;;10.16;89.34
38912;BME280;28444;48.056;14.408;2023-03-20T07:18:31;97889.03;;;10.13;89.28
38912;BME280;28444;48.056;14.408;2023-03-20T07:21:02;97891.94;;;10.15;89.32
38912;BME280;28444;48.056;14.408;2023-03-20T07:23:31;97887.00;;;10.29;88.98
38912;BME280;28444;48.056;14.408;2023-03-20T07:25:59;97891.56;;;10.26;89.07
38912;BME280;28444;48.056;14.408;2023-03-20T07:28:26;97901.22;;;10.27;88.35
38912;BME280;28444;48.056;14.408;2023-03-20T07:30:54;97898.66;;;10.29;88.32
38912;BME280;28444;48.056;14.408;2023-03-20T07:33:21;97898.84;;;10.31;88.51
38912;BME280;28444;48.056;14.408;2023-03-20T07:35:51;97906.63;;;10.50;88.07
38912;BME280;28444;48.056;14.408;2023-03-20T07:38:20;97900.75;;;10.54;86.96
38912;BME280;28444;48.056;14.408;2023-03-20T07:40:46;97906.00;;;10.59;87.13
38912;BME280;28444;48.056;14.408;2023-03-20T07:43:15;97901.63;;;10.64;86.96
38912;BME280;28444;48.056;14.408;2023-03-20T07:45:42;97907.25;;;10.66;86.43
38912;BME280;28444;48.056;14.408;2023-03-20T07:48:09;97913.84;;;10.63;86.27
38912;BME280;28444;48.056;14.408;2023-03-20T07:50:35;97918.50;;;10.78;84.95
38912;BME280;28444;48.056;14.408;2023-03-20T07:53:02;97917.78;;;10.77;85.45
38912;BME280;28444;48.056;14.408;2023-03-20T07:55:29;97917.81;;;10.70;85.40
38912;BME280;28444;48.056;14.408;2023-03-20T07:57:56;97921.47;;;10.72;85.31
38912;BME280;28444;48.056;14.408;2023-03-20T08:00:22;97924.97;;;10.65;85.47
38912;BME280;28444;48.056;14.408;2023-03-20T08:02:52;97928.06;;;10.62;85.81
38912;BME280;28444;48.056;14.408;2023-03-20T08:05:18;97920.06;;;10.56;85.50
38912;BME280;28444;48.056;14.408;2023-03-20T08:07:45;97936.50;;;10.48;85.80
38912;BME280;28444;48.056;14.408;2023-03-20T08:10:12;97933.22;;;10.50;86.28
38912;BME280;28444;48.056;14.408;2023-03-20T08:12:39;97922.28;;;10.50;85.74
38912;BME280;28444;48.056;14.408;2023-03-20T08:15:06;97930.66;;;10.52;86.04
38912;BME280;28444;48.056;14.408;2023-03-20T08:17:33;97927.34;;;10.61;85.75
38912;BME280;28444;48.056;14.408;2023-03-20T08:20:00;97927.72;;;10.57;86.19
38912;BME280;28444;48.056;14.408;2023-03-20T08:22:27;97925.69;;;10.66;85.53
38912;BME280;28444;48.056;14.408;2023-03-20T08:24:53;97929.97;;;10.84;84.94
38912;BME280;28444;48.056;14.408;2023-03-20T08:27:20;97931.94;;;10.91;84.27
38912;BME280;28444;48.056;14.408;2023-03-20T08:29:47;97936.84;;;10.93;84.11
38912;BME280;28444;48.056;14.408;2023-03-20T08:32:13;97934.84;;;10.93;84.67
38912;BME280;28444;48.056;14.408;2023-03-20T08:34:40;97925.78;;;10.83;85.11
38912;BME280;28444;48.056;14.408;2023-03-20T08:37:07;97932.28;;;10.95;84.71
38912;BME280;28444;48.056;14.408;2023-03-20T08:39:34;97927.16;;;10.99;85.01
38912;BME280;28444;48.056;14.408;2023-03-20T08:42:01;97939.13;;;11.12;84.12
38912;BME280;28444;48.056;14.408;2023-03-20T08:44:28;97947.53;;;11.06;83.60
38912;BME280;28444;48.056;14.408;2023-03-20T08:46:54;97937.22;;;10.97;83.62
38912;BME280;28444;48.056;14.408;2023-03-20T08:49:21;97943.59;;;10.92;83.93
38912;BME280;28444;48.056;14.408;2023-03-20T08:51:48;97948.34;;;10.91;84.25
38912;BME280;28444;48.056;14.408;2023-03-20T08:54:15;97942.31;;;10.93;84.58
38912;BME280;28444;48.056;14.408;2023-03-20T08:56:44;97941.72;;;11.02;84.29
38912;BME280;28444;48.056;14.408;2023-03-20T08:59:11;97950.47;;;11.08;83.86
38912;BME280;28444;48.056;14.408;2023-03-20T09:01:38;97951.91;;;11.09;83.59
38912;BME280;28444;48.056;14.408;2023-03-20T09:04:15;97947.97;;;11.27;83.14
38912;BME280;28444;48.056;14.408;2023-03-20T09:06:42;97946.28;;;11.32;82.66
38912;BME280;28444;48.056;14.408;2023-03-20T09:09:09;97938.84;;;11.50;82.31
38912;BME280;28444;48.056;14.408;2023-03-20T09:11:36;97935.63;;;11.44;81.74
38912;BME280;28444;48.056;14.408;2023-03-20T09:14:02;97947.97;;;11.52;81.15
38912;BME280;28444;48.056;14.408;2023-03-20T09:16:29;97948.69;;;11.53;81.49
38912;BME280;28444;48.056;14.408;2023-03-20T09:18:56;97950.44;;;11.66;81.81
38912;BME280;28444;48.056;14.408;2023-03-20T09:21:23;97947.13;;;11.92;80.34
38912;BME280;28444;48.056;14.408;2023-03-20T09:23:49;97946.00;;;12.13;79.67
38912;BME280;28444;48.056;14.408;2023-03-20T09:26:16;97946.44;;;12.09;79.43
38912;BME280;28444;48.056;14.408;2023-03-20T09:28:43;97945.44;;;12.14;78.40
38912;BME280;28444;48.056;14.408;2023-03-20T09:31:09;97948.09;;;12.04;79.14
38912;BME280;28444;48.056;14.408;2023-03-20T09:33:37;97942.78;;;12.07;79.13
38912;BME280;28444;48.056;14.408;2023-03-20T09:36:04;97948.41;;;12.09;78.95
38912;BME280;28444;48.056;14.408;2023-03-20T09:38:33;97945.69;;;12.26;78.25
38912;BME280;28444;48.056;14.408;2023-03-20T09:41:01;97949.16;;;12.44;77.25
38912;BME280;28444;48.056;14.408;2023-03-20T09:43:50;97949.78;;;12.69;75.90
38912;BME280;28444;48.056;14.408;2023-03-20T09:50:32;97954.16;;;12.38;76.48
38912;BME280;28444;48.056;14.408;2023-03-20T09:53:10;97956.03;;;12.18;76.96
38912;BME280;28444;48.056;14.408;2023-03-20T09:55:39;97952.31;;;12.06;77.35
38912;BME280;28444;48.056;14.408;2023-03-20T09:58:11;97951.25;;;12.01;77.78
38912;BME280;28444;48.056;14.408;2023-03-20T10:00:42;97953.91;;;12.09;77.38
38912;BME280;28444;48.056;14.408;2023-03-20T10:03:38;97952.34;;;11.98;77.55
38912;BME280;28444;48.056;14.408;2023-03-20T10:06:14;97952.03;;;11.94;77.69
38912;BME280;28444;48.056;14.408;2023-03-20T10:08:42;97953.56;;;11.87;77.93
38912;BME280;28444;48.056;14.408;2023-03-20T10:18:04;97943.72;;;11.84;78.27
38912;BME280;28444;48.056;14.408;2023-03-20T10:21:03;97947.44;;;11.71;78.26
38912;BME280;28444;48.056;14.408;2023-03-20T10:23:35;97948.09;;;11.62;77.63
38912;BME280;28444;48.056;14.408;2023-03-20T10:26:14;97939.03;;;11.52;78.46
38912;BME280;28444;48.056;14.408;2023-03-20T10:29:05;97945.25;;;11.52;78.79
38912;BME280;28444;48.056;14.408;2023-03-20T10:32:22;97940.41;;;11.61;77.96
38912;BME280;28444;48.056;14.408;2023-03-20T10:41:09;97933.16;;;11.80;76.71
38912;BME280;28444;48.056;14.408;2023-03-20T10:43:55;97926.84;;;11.70;77.40
38912;BME280;28444;48.056;14.408;2023-03-20T10:46:26;97933.88;;;11.81;76.95
38912;BME280;28444;48.056;14.408;2023-03-20T10:48:59;97925.88;;;11.75;76.82
38912;BME280;28444;48.056;14.408;2023-03-20T10:51:40;97922.41;;;11.75;76.91
38912;BME280;28444;48.056;14.408;2023-03-20T10:54:21;97925.31;;;11.77;76.95
38912;BME280;28444;48.056;14.408;2023-03-20T10:56:51;97918.16;;;11.81;76.36
38912;BME280;28444;48.056;14.408;2023-03-20T11:01:53;97916.69;;;12.06;75.71
38912;BME280;28444;48.056;14.408;2023-03-20T11:04:20;97914.00;;;11.98;75.60
38912;BME280;28444;48.056;14.408;2023-03-20T11:07:33;97911.75;;;12.04;75.99
38912;BME280;28444;48.056;14.408;2023-03-20T11:09:40;97911.09;;;11.96;75.50
38912;BME280;28444;48.056;14.408;2023-03-20T11:12:15;97908.06;;;12.09;75.25
38912;BME280;28444;48.056;14.408;2023-03-20T11:14:43;97904.16;;;12.12;74.85
38912;BME280;28444;48.056;14.408;2023-03-20T11:17:10;97908.53;;;12.15;75.32
38912;BME280;28444;48.056;14.408;2023-03-20T11:19:40;97898.38;;;12.08;75.29
38912;BME280;28444;48.056;14.408;2023-03-20T11:22:24;97905.44;;;12.46;74.71
38912;BME280;28444;48.056;14.408;2023-03-20T11:24:54;97905.09;;;12.59;73.69
38912;BME280;28444;48.056;14.408;2023-03-20T11:27:29;97896.41;;;12.53;73.85
38912;BME280;28444;48.056;14.408;2023-03-20T11:29:57;97892.84;;;12.60;74.06
38912;BME280;28444;48.056;14.408;2023-03-20T11:32:45;97887.75;;;12.84;73.38
38912;BME280;28444;48.056;14.408;2023-03-20T11:35:39;97885.78;;;12.94;72.47
38912;BME280;28444;48.056;14.408;2023-03-20T11:38:19;97884.69;;;13.07;71.34
38912;BME280;28444;48.056;14.408;2023-03-20T11:40:47;97889.47;;;13.06;72.06
38912;BME280;28444;48.056;14.408;2023-03-20T11:43:23;97892.38;;;13.08;71.92
38912;BME280;28444;48.056;14.408;2023-03-20T11:45:55;97883.34;;;12.98;71.35
38912;BME280;28444;48.056;14.408;2023-03-20T11:48:35;97884.53;;;12.77;71.71
38912;BME280;28444;48.056;14.408;2023-03-20T11:51:10;97880.72;;;12.90;71.66
38912;BME280;28444;48.056;14.408;2023-03-20T11:53:39;97882.63;;;12.97;71.58
38912;BME280;28444;48.056;14.408;2023-03-20T11:56:14;97876.94;;;12.86;71.86
38912;BME280;28444;48.056;14.408;2023-03-20T12:01:51;97874.97;;;12.69;73.54
38912;BME280;28444;48.056;14.408;2023-03-20T12:04:26;97883.78;;;12.67;73.58
38912;BME280;28444;48.056;14.408;2023-03-20T12:06:57;97874.72;;;12.74;73.18
38912;BME280;28444;48.056;14.408;2023-03-20T12:09:56;97875.88;;;12.71;71.34
38912;BME280;28444;48.056;14.408;2023-03-20T12:12:37;97877.72;;;12.69;72.52
38912;BME280;28444;48.056;14.408;2023-03-20T12:15:33;97883.00;;;12.57;72.17
38912;BME280;28444;48.056;14.408;2023-03-20T12:18:09;97871.03;;;12.62;71.19
38912;BME280;28444;48.056;14.408;2023-03-20T12:20:51;97870.97;;;12.52;72.38
38912;BME280;28444;48.056;14.408;2023-03-20T12:23:57;97874.88;;;12.76;71.65
38912;BME280;28444;48.056;14.408;2023-03-20T12:26:41;97875.94;;;12.91;70.43
38912;BME280;28444;48.056;14.408;2023-03-20T12:29:31;97872.50;;;12.90;70.06
38912;BME280;28444;48.056;14.408;2023-03-20T12:32:09;97862.53;;;12.95;70.73
38912;BME280;28444;48.056;14.408;2023-03-20T12:34:43;97872.84;;;13.04;70.70
38912;BME280;28444;48.056;14.408;2023-03-20T12:37:13;97869.09;;;13.09;70.49
38912;BME280;28444;48.056;14.408;2023-03-20T12:39:51;97866.00;;;12.95;70.87
38912;BME280;28444;48.056;14.408;2023-03-20T12:42:56;97869.84;;;12.83;71.25
38912;BME280;28444;48.056;14.408;2023-03-20T12:45:33;97858.28;;;13.11;70.86
38912;BME280;28444;48.056;14.408;2023-03-20T12:48:13;97852.09;;;13.20;69.33
38912;BME280;28444;48.056;14.408;2023-03-20T12:50:54;97862.88;;;13.09;69.95
38912;BME280;28444;48.056;14.408;2023-03-20T12:56:53;97846.44;;;12.82;70.83
38912;BME280;28444;48.056;14.408;2023-03-20T13:00:13;97850.44;;;12.71;71.56
38912;BME280;28444;48.056;14.408;2023-03-20T13:02:56;97842.56;;;12.85;72.77
38912;BME280;28444;48.056;14.408;2023-03-20T13:06:01;97844.13;;;13.15;69.92
38912;BME280;28444;48.056;14.408;2023-03-20T13:12:02;97845.13;;;13.56;69.85
38912;BME280;28444;48.056;14.408;2023-03-20T13:15:33;97857.31;;;13.72;68.31
38912;BME280;28444;48.056;14.408;2023-03-20T13:18:24;97855.34;;;13.46;69.12
38912;BME280;28444;48.056;14.408;2023-03-20T13:20:56;97859.00;;;13.58;69.59
38912;BME280;28444;48.056;14.408;2023-03-20T13:23:43;97853.47;;;13.39;69.66
38912;BME280;28444;48.056;14.408;2023-03-20T13:26:44;97855.63;;;13.31;69.34
38912;BME280;28444;48.056;14.408;2023-03-20T13:29:43;97861.88;;;13.04;70.34
38912;BME280;28444;48.056;14.408;2023-03-20T13:32:24;97856.44;;;12.87;70.33
38912;BME280;28444;48.056;14.408;2023-03-20T13:35:42;97851.31;;;13.10;69.81
38912;BME280;28444;48.056;14.408;2023-03-20T13:38:06;97862.47;;;12.85;70.36
38912;BME280;28444;48.056;14.408;2023-03-20T13:40:40;97852.41;;;12.88;70.48
38912;BME280;28444;48.056;14.408;2023-03-20T13:45:44;97851.84;;;12.62;71.58
38912;BME280;28444;48.056;14.408;2023-03-20T13:48:44;97855.06;;;12.68;71.71
38912;BME280;28444;48.056;14.408;2023-03-20T13:51:34;97848.13;;;12.67;72.01
38912;BME280;28444;48.056;14.408;2023-03-20T13:54:18;97847.91;;;12.83;71.73
38912;BME280;28444;48.056;14.408;2023-03-20T14:00:46;97846.25;;;12.43;72.08
38912;BME280;28444;48.056;14.408;2023-03-20T14:03:07;97835.81;;;12.41;72.83
38912;BME280;28444;48.056;14.408;2023-03-20T14:05:39;97840.56;;;12.58;72.45
38912;BME280;28444;48.056;14.408;2023-03-20T14:08:32;97841.06;;;12.74;72.10
38912;BME280;28444;48.056;14.408;2023-03-20T14:11:25;97837.59;;;12.73;71.06
38912;BME280;28444;48.056;14.408;2023-03-20T14:14:25;97836.31;;;12.74;71.75